createdAt,value
2023-04-11T00:02:20.778Z,12.43
2023-04-11T00:04:54.911Z,12.40
2023-04-11T00:07:22.770Z,12.38
2023-04-11T00:09:50.663Z,12.32
2023-04-11T00:12:18.407Z,12.32
2023-04-11T00:14:48.871Z,12.29
2023-04-11T00:17:17.679Z,12.31
2023-04-11T00:19:46.121Z,12.32
2023-04-11T00:22:16.187Z,12.30
2023-04-11T00:24:43.874Z,12.24
2023-04-11T00:27:11.568Z,12.23
2023-04-11T00:29:39.275Z,12.23
2023-04-11T00:32:07.837Z,12.18
2023-04-11T00:34:35.865Z,12.20
2023-04-11T00:37:03.650Z,12.20
2023-04-11T00:39:34.297Z,12.18
2023-04-11T00:42:06.581Z,12.18
2023-04-11T00:44:34.430Z,12.20
2023-04-11T00:47:03.749Z,12.17
2023-04-11T00:49:32.069Z,12.17
2023-04-11T00:52:00.446Z,12.13
2023-04-11T00:54:30.041Z,12.10
2023-04-11T00:57:00.003Z,12.07
2023-04-11T00:59:28.922Z,12.02
2023-04-11T01:01:56.863Z,11.97
2023-04-11T01:04:26.169Z,11.93
2023-04-11T01:06:57.489Z,11.87
2023-04-11T01:09:28.461Z,11.86
2023-04-11T01:11:57.800Z,11.80
2023-04-11T01:14:28.296Z,11.80
2023-04-11T01:16:57.357Z,11.75
2023-04-11T01:19:27.073Z,11.70
2023-04-11T01:21:58.836Z,11.69
2023-04-11T01:24:28.090Z,11.67
2023-04-11T01:26:56.791Z,11.68
2023-04-11T01:29:24.481Z,11.69
2023-04-11T01:31:52.926Z,11.66
2023-04-11T01:34:22.396Z,11.66
2023-04-11T01:36:50.061Z,11.66
2023-04-11T01:39:17.741Z,11.67
2023-04-11T01:41:47.646Z,11.68
2023-04-11T01:44:15.450Z,11.68
2023-04-11T01:46:44.198Z,11.66
2023-04-11T01:49:16.315Z,11.67
2023-04-11T01:51:44.217Z,11.64
2023-04-11T01:54:12.104Z,11.60
2023-04-11T01:56:39.842Z,11.57
2023-04-11T01:59:08.956Z,11.57
2023-04-11T02:01:37.262Z,11.55
2023-04-11T02:04:05.103Z,11.52
2023-04-11T02:06:33.094Z,11.50
2023-04-11T02:09:00.770Z,11.48
2023-04-11T02:11:28.481Z,11.47
2023-04-11T02:13:56.103Z,11.46
2023-04-11T02:16:26.001Z,11.44
2023-04-11T02:18:54.181Z,11.43
2023-04-11T02:21:22.103Z,11.39
2023-04-11T02:23:49.748Z,11.36
2023-04-11T02:26:17.419Z,11.31
2023-04-11T02:28:45.050Z,11.27
2023-04-11T02:31:13.313Z,11.23
2023-04-11T02:33:42.341Z,11.21
2023-04-11T02:36:12.388Z,11.18
2023-04-11T02:38:40.098Z,11.15
2023-04-11T02:41:08.466Z,11.16
2023-04-11T02:43:36.143Z,11.13
2023-04-11T02:46:12.847Z,11.13
2023-04-11T02:48:42.208Z,11.11
2023-04-11T02:51:09.877Z,11.05
2023-04-11T02:53:37.520Z,11.00
2023-04-11T02:56:06.715Z,11.00
2023-04-11T02:58:34.590Z,10.99
2023-04-11T03:01:03.289Z,10.96
2023-04-11T03:03:31.062Z,10.93
2023-04-11T03:06:00.160Z,10.92
2023-04-11T03:08:27.785Z,10.88
2023-04-11T03:10:55.465Z,10.88
2023-04-11T03:13:23.136Z,10.83
2023-04-11T03:15:50.840Z,10.82
2023-04-11T03:18:19.256Z,10.80
2023-04-11T03:20:46.947Z,10.81
2023-04-11T03:23:16.258Z,10.81
2023-04-11T03:25:44.598Z,10.81
2023-04-11T03:28:12.619Z,10.79
2023-04-11T03:30:42.576Z,10.81
2023-04-11T03:33:10.656Z,10.83
2023-04-11T03:35:38.550Z,10.83
2023-04-11T03:38:06.223Z,10.84
2023-04-11T03:40:35.758Z,10.81
2023-04-11T03:43:04.859Z,10.69
2023-04-11T03:45:32.756Z,10.56
2023-04-11T03:48:00.474Z,10.54
2023-04-11T03:50:28.404Z,10.50
2023-04-11T03:52:56.112Z,10.43
2023-04-11T03:55:23.908Z,10.36
2023-04-11T03:57:52.900Z,10.35
2023-04-11T04:00:21.037Z,10.25
2023-04-11T04:02:48.864Z,10.17
2023-04-11T04:05:16.741Z,10.22
2023-04-11T04:07:44.475Z,10.22
2023-04-11T04:10:12.171Z,10.26
2023-04-11T04:12:40.598Z,10.33
2023-04-11T04:15:11.366Z,10.37
2023-04-11T04:17:39.178Z,10.39
2023-04-11T04:20:08.922Z,10.34
2023-04-11T04:22:36.536Z,10.30
2023-04-11T04:25:05.114Z,10.28
2023-04-11T04:27:33.375Z,10.27
2023-04-11T04:30:04.449Z,10.27
2023-04-11T04:32:34.569Z,10.26
2023-04-11T04:35:02.562Z,10.24
2023-04-11T04:37:30.280Z,10.24
2023-04-11T04:40:02.080Z,10.30
2023-04-11T04:42:31.060Z,10.27
2023-04-11T04:44:58.745Z,10.17
2023-04-11T04:47:32.277Z,10.08
2023-04-11T04:50:01.749Z,10.08
2023-04-11T04:52:30.677Z,10.10
2023-04-11T04:54:59.027Z,10.10
2023-04-11T04:57:27.289Z,10.05
2023-04-11T04:59:55.233Z,10.07
2023-04-11T05:02:23.220Z,10.06
2023-04-11T05:04:51.195Z,10.11
2023-04-11T05:07:20.897Z,10.16
2023-04-11T05:09:48.747Z,10.21
2023-04-11T05:12:16.827Z,10.21
2023-04-11T05:14:44.500Z,10.20
2023-04-11T05:17:12.266Z,10.22
2023-04-11T05:19:39.959Z,10.20
2023-04-11T05:22:07.702Z,10.14
2023-04-11T05:24:36.957Z,10.15
2023-04-11T05:27:04.743Z,10.17
2023-04-11T05:29:32.412Z,10.14
2023-04-11T05:32:00.448Z,10.13
2023-04-11T05:34:32.113Z,10.08
2023-04-11T05:36:59.894Z,10.08
2023-04-11T05:39:27.621Z,10.07
2023-04-11T05:41:56.759Z,10.02
2023-04-11T05:44:24.651Z,10.05
2023-04-11T05:46:52.302Z,10.06
2023-04-11T05:49:20.148Z,10.02
2023-04-11T05:51:47.866Z,10.05
2023-04-11T05:54:31.738Z,10.02
2023-04-11T05:57:01.894Z,10.03
2023-04-11T05:59:30.624Z,10.03
2023-04-11T06:01:58.737Z,10.05
2023-04-11T06:04:26.604Z,9.98
2023-04-11T06:06:54.965Z,9.99
2023-04-11T06:09:22.818Z,10.01
2023-04-11T06:11:50.532Z,10.00
2023-04-11T06:14:19.594Z,10.03
2023-04-11T06:16:47.296Z,10.04
2023-04-11T06:19:14.930Z,10.06
2023-04-11T06:21:42.629Z,10.02
2023-04-11T06:24:11.837Z,10.04
2023-04-11T06:26:39.462Z,10.09
2023-04-11T06:29:08.377Z,10.11
2023-04-11T06:31:37.498Z,10.10
2023-04-11T06:34:05.264Z,10.12
2023-04-11T06:36:33.018Z,10.08
2023-04-11T06:39:00.991Z,10.09
2023-04-11T06:41:28.688Z,10.14
2023-04-11T06:43:56.672Z,10.18
2023-04-11T06:46:24.632Z,10.20
2023-04-11T06:48:53.687Z,10.23
2023-04-11T06:51:21.345Z,10.26
2023-04-11T06:53:48.996Z,10.30
2023-04-11T06:56:16.687Z,10.36
2023-04-11T06:58:44.415Z,10.43
2023-04-11T07:01:12.374Z,10.46
2023-04-11T07:03:40.483Z,10.61
2023-04-11T07:06:10.399Z,10.64
2023-04-11T07:08:38.328Z,10.62
2023-04-11T07:11:06.548Z,10.59
2023-04-11T07:13:34.270Z,10.58
2023-04-11T07:16:03.147Z,10.71
2023-04-11T07:18:31.150Z,10.84
2023-04-11T07:20:58.999Z,10.98
2023-04-11T07:23:28.197Z,11.11
2023-04-11T07:25:55.855Z,11.25
2023-04-11T07:28:23.732Z,11.37
2023-04-11T07:30:51.645Z,11.48
2023-04-11T07:33:19.376Z,11.65
2023-04-11T07:35:47.200Z,11.76
2023-04-11T07:38:15.683Z,11.86
2023-04-11T07:40:44.716Z,12.06
2023-04-11T07:43:12.416Z,12.09
2023-04-11T07:45:42.298Z,12.02
2023-04-11T07:48:09.962Z,12.13
2023-04-11T07:50:37.649Z,12.32
2023-04-11T07:53:05.439Z,12.32
2023-04-11T07:55:33.082Z,12.35
2023-04-11T07:58:02.122Z,12.40
2023-04-11T08:00:30.957Z,12.59
2023-04-11T08:02:59.363Z,12.73
2023-04-11T08:05:27.977Z,12.91
2023-04-11T08:07:55.914Z,13.12
2023-04-11T08:10:23.648Z,13.29
2023-04-11T08:12:51.665Z,13.35
2023-04-11T08:15:20.748Z,13.26
2023-04-11T08:17:49.735Z,13.15
2023-04-11T08:20:18.059Z,13.03
2023-04-11T08:22:46.943Z,12.94
2023-04-11T08:25:16.242Z,12.69
2023-04-11T08:27:44.012Z,12.60
2023-04-11T08:30:12.280Z,12.68
2023-04-11T08:32:42.445Z,12.62
2023-04-11T08:35:11.634Z,12.58
2023-04-11T08:37:39.365Z,12.47
2023-04-11T08:40:08.647Z,12.44
2023-04-11T08:42:36.922Z,12.45
2023-04-11T08:45:08.567Z,12.42
2023-04-11T08:47:36.928Z,12.59
2023-04-11T08:50:06.998Z,12.81
2023-04-11T08:52:35.670Z,12.95
2023-04-11T08:55:03.399Z,13.21
2023-04-11T08:57:32.330Z,13.47
2023-04-11T09:00:08.068Z,13.50
2023-04-11T09:02:36.048Z,13.60
2023-04-11T09:05:03.867Z,13.73
2023-04-11T09:07:49.320Z,13.74
2023-04-11T09:10:20.863Z,13.82
2023-04-11T09:12:48.660Z,13.68
2023-04-11T09:15:22.592Z,13.54
2023-04-11T09:17:50.942Z,13.42
2023-04-11T09:20:20.416Z,13.21
2023-04-11T09:22:53.521Z,13.02
2023-04-11T09:25:22.660Z,12.97
2023-04-11T09:27:51.173Z,12.87
2023-04-11T09:30:24.001Z,12.67
2023-04-11T09:32:53.294Z,12.72
2023-04-11T09:35:24.856Z,12.70
2023-04-11T09:37:55.860Z,12.71
2023-04-11T09:40:26.161Z,12.78
2023-04-11T09:42:58.362Z,13.08
2023-04-11T09:45:27.110Z,13.29
2023-04-11T09:47:56.766Z,13.37
2023-04-11T09:50:26.146Z,13.43
2023-04-11T09:52:58.854Z,13.54
2023-04-11T09:55:27.351Z,13.72
2023-04-11T09:57:55.688Z,13.75
2023-04-11T10:00:29.170Z,13.85
2023-04-11T10:02:57.830Z,14.14
2023-04-11T10:05:27.863Z,14.24
2023-04-11T10:08:03.736Z,14.41
2023-04-11T10:10:31.737Z,14.37
2023-04-11T10:12:59.945Z,14.27
2023-04-11T10:15:27.880Z,14.24
2023-04-11T10:18:09.856Z,14.55
2023-04-11T10:20:46.294Z,14.50
2023-04-11T10:23:16.450Z,14.45
2023-04-11T10:25:56.352Z,14.28
2023-04-11T10:28:35.676Z,14.13
2023-04-11T10:31:05.819Z,14.07
2023-04-11T10:33:36.086Z,14.28
2023-04-11T10:36:06.495Z,14.47
2023-04-11T10:38:51.380Z,14.48
2023-04-11T10:41:31.376Z,14.58
2023-04-11T10:44:16.472Z,14.92
2023-04-11T10:46:49.723Z,14.97
2023-04-11T10:49:36.312Z,15.21
2023-04-11T10:52:18.616Z,15.45
2023-04-11T10:54:47.894Z,15.72
2023-04-11T10:57:15.739Z,15.81
2023-04-11T10:59:59.782Z,15.79
2023-04-11T11:02:38.683Z,15.49
2023-04-11T11:05:17.272Z,15.40
2023-04-11T11:07:52.472Z,15.46
2023-04-11T11:10:41.734Z,15.30
2023-04-11T11:13:10.104Z,15.15
2023-04-11T11:15:38.502Z,14.87
2023-04-11T11:18:08.067Z,14.74
2023-04-11T11:20:36.688Z,14.57
2023-04-11T11:23:06.292Z,14.44
2023-04-11T11:25:34.001Z,14.17
2023-04-11T11:28:05.142Z,13.98
2023-04-11T11:30:33.253Z,14.00
2023-04-11T11:33:01.170Z,13.89
2023-04-11T11:35:29.033Z,13.98
2023-04-11T11:37:57.012Z,14.35
2023-04-11T11:40:24.953Z,14.63
2023-04-11T11:42:53.237Z,15.04
2023-04-11T11:45:23.685Z,15.38
2023-04-11T11:47:51.773Z,15.56
2023-04-11T11:50:27.438Z,15.82
2023-04-11T11:52:55.407Z,15.93
2023-04-11T11:55:34.398Z,16.13
2023-04-11T11:58:03.803Z,16.23
2023-04-11T12:00:37.672Z,16.48
2023-04-11T12:03:06.723Z,16.49
2023-04-11T12:05:35.736Z,16.67
2023-04-11T12:08:05.876Z,16.81
2023-04-11T12:10:38.937Z,16.81
2023-04-11T12:13:14.603Z,16.96
2023-04-11T12:15:46.989Z,17.07
2023-04-11T12:18:14.826Z,17.31
2023-04-11T12:20:42.645Z,17.43
2023-04-11T12:23:10.391Z,17.57
2023-04-11T12:25:38.241Z,17.77
2023-04-11T12:28:06.024Z,18.01
2023-04-11T12:30:33.949Z,17.89
2023-04-11T12:33:03.123Z,17.60
2023-04-11T12:35:32.215Z,17.18
2023-04-11T12:38:00.509Z,16.75
2023-04-11T12:40:29.816Z,16.94
2023-04-11T12:42:57.782Z,17.14
2023-04-11T12:45:25.928Z,17.40
2023-04-11T12:47:54.352Z,17.58
2023-04-11T12:50:24.400Z,17.63
2023-04-11T12:52:52.426Z,17.74
2023-04-11T12:55:20.321Z,17.86
2023-04-11T12:57:48.079Z,17.92
2023-04-11T13:00:17.143Z,18.12
2023-04-11T13:02:45.467Z,18.21
2023-04-11T13:05:15.508Z,18.24
2023-04-11T13:07:46.274Z,18.35
2023-04-11T13:10:15.897Z,18.52
2023-04-11T13:12:45.633Z,18.53
2023-04-11T13:15:14.885Z,18.51
2023-04-11T13:17:43.464Z,18.40
2023-04-11T13:20:13.179Z,18.44
2023-04-11T13:22:42.154Z,18.54
2023-04-11T13:25:12.379Z,18.80
2023-04-11T13:27:41.123Z,18.96
2023-04-11T13:30:10.494Z,19.17
2023-04-11T13:32:38.415Z,19.02
2023-04-11T13:35:07.136Z,19.03
2023-04-11T13:37:34.760Z,19.06
2023-04-11T13:40:02.886Z,18.96
2023-04-11T13:42:32.001Z,18.81
2023-04-11T13:44:59.968Z,19.09
2023-04-11T13:47:27.704Z,19.13
2023-04-11T13:49:55.667Z,19.06
2023-04-11T13:52:23.890Z,19.04
2023-04-11T13:54:51.616Z,18.86
2023-04-11T13:57:19.316Z,18.44
2023-04-11T13:59:48.385Z,18.06
2023-04-11T14:02:16.205Z,18.08
2023-04-11T14:04:43.934Z,18.15
2023-04-11T14:07:12.586Z,18.23
2023-04-11T14:09:40.477Z,18.29
2023-04-11T14:12:08.150Z,18.30
2023-04-11T14:14:35.792Z,18.48
2023-04-11T14:17:04.982Z,18.42
2023-04-11T14:19:32.798Z,18.64
2023-04-11T14:22:00.763Z,18.68
2023-04-11T14:24:29.304Z,18.41
2023-04-11T14:26:57.224Z,18.38
2023-04-11T14:29:25.246Z,18.44
2023-04-11T14:31:53.291Z,18.30
2023-04-11T14:34:22.586Z,17.77
2023-04-11T14:36:50.501Z,17.52
2023-04-11T14:39:18.362Z,17.38
2023-04-11T14:41:46.173Z,17.25
2023-04-11T14:44:14.171Z,17.07
2023-04-11T14:46:41.945Z,16.90
2023-04-11T14:49:09.616Z,16.66
2023-04-11T14:51:38.766Z,16.47
2023-04-11T14:54:06.551Z,16.35
2023-04-11T14:56:34.162Z,16.26
2023-04-11T14:59:01.916Z,16.09
2023-04-11T15:01:29.622Z,16.28
2023-04-11T15:03:57.697Z,16.42
2023-04-11T15:06:26.318Z,16.60
2023-04-11T15:08:55.918Z,16.66
2023-04-11T15:11:23.491Z,16.57
2023-04-11T15:13:52.916Z,16.65
2023-04-11T15:16:21.940Z,16.51
2023-04-11T15:18:50.142Z,16.51
2023-04-11T15:21:17.809Z,16.59
2023-04-11T15:23:46.036Z,16.50
2023-04-11T15:26:14.975Z,16.40
2023-04-11T15:28:43.647Z,16.23
2023-04-11T15:31:13.015Z,16.21
2023-04-11T15:33:40.892Z,16.20
2023-04-11T15:36:10.071Z,16.18
2023-04-11T15:38:37.801Z,16.10
2023-04-11T15:41:05.849Z,15.95
2023-04-11T15:43:34.816Z,15.93
2023-04-11T15:46:03.753Z,15.89
2023-04-11T15:48:31.890Z,15.91
2023-04-11T15:50:59.712Z,15.84
2023-04-11T15:53:27.549Z,15.82
2023-04-11T15:55:55.280Z,15.73
2023-04-11T15:58:23.007Z,15.66
2023-04-11T16:00:54.837Z,15.63
2023-04-11T16:03:23.075Z,15.41
2023-04-11T16:05:52.968Z,15.40
2023-04-11T16:08:21.852Z,15.45
2023-04-11T16:10:49.629Z,15.41
2023-04-11T16:13:17.375Z,15.42
2023-04-11T16:15:45.036Z,15.29
2023-04-11T16:18:14.258Z,15.27
2023-04-11T16:20:41.883Z,15.20
2023-04-11T16:23:09.529Z,15.21
2023-04-11T16:25:38.184Z,15.23
2023-04-11T16:28:06.145Z,15.20
2023-04-11T16:30:33.810Z,15.19
2023-04-11T16:33:01.557Z,15.09
2023-04-11T16:35:30.617Z,15.09
2023-04-11T16:37:58.299Z,15.00
2023-04-11T16:40:26.091Z,14.96
2023-04-11T16:42:53.833Z,14.89
2023-04-11T16:45:21.582Z,14.86
2023-04-11T16:47:49.295Z,14.79
2023-04-11T16:50:17.847Z,14.80
2023-04-11T16:52:47.105Z,14.70
2023-04-11T16:55:15.106Z,14.71
2023-04-11T16:57:43.246Z,14.60
2023-04-11T17:00:15.283Z,14.54
2023-04-11T17:02:43.504Z,14.45
2023-04-11T17:05:11.704Z,14.37
2023-04-11T17:07:39.414Z,14.26
2023-04-11T17:10:10.043Z,14.21
2023-04-11T17:12:37.754Z,14.21
2023-04-11T17:15:07.104Z,14.09
2023-04-11T17:17:35.020Z,14.05
2023-04-11T17:20:09.452Z,13.97
2023-04-11T17:22:41.203Z,13.86
2023-04-11T17:25:11.474Z,13.83
2023-04-11T17:27:39.571Z,13.73
2023-04-11T17:30:09.526Z,13.74
2023-04-11T17:32:38.378Z,13.71
2023-04-11T17:35:07.010Z,13.66
2023-04-11T17:37:35.844Z,13.58
2023-04-11T17:40:08.735Z,13.55
2023-04-11T17:42:38.098Z,13.47
2023-04-11T17:45:16.539Z,13.43
2023-04-11T17:47:45.330Z,13.39
2023-04-11T17:50:14.371Z,13.32
2023-04-11T17:52:43.422Z,13.30
2023-04-11T17:55:14.088Z,13.26
2023-04-11T17:57:43.811Z,13.26
2023-04-11T18:00:19.568Z,13.26
2023-04-11T18:02:50.065Z,13.26
2023-04-11T18:05:24.551Z,13.20
2023-04-11T18:07:56.566Z,13.16
2023-04-11T18:10:25.933Z,13.11
2023-04-11T18:12:57.438Z,13.04
2023-04-11T18:15:27.039Z,12.99
2023-04-11T18:17:57.672Z,12.97
2023-04-11T18:20:25.685Z,12.93
2023-04-11T18:22:55.929Z,12.90
2023-04-11T18:25:24.231Z,12.86
2023-04-11T18:27:52.056Z,12.86
2023-04-11T18:30:21.294Z,12.82
2023-04-11T18:32:51.403Z,12.80
2023-04-11T18:35:19.231Z,12.75
2023-04-11T18:37:47.289Z,12.77
2023-04-11T18:40:15.687Z,12.71
2023-04-11T18:42:45.226Z,12.66
2023-04-11T18:45:14.897Z,12.60
2023-04-11T18:47:46.215Z,12.50
2023-04-11T18:50:14.568Z,12.44
2023-04-11T18:52:44.463Z,12.40
2023-04-11T18:55:13.094Z,12.36
2023-04-11T18:57:41.658Z,12.38
2023-04-11T19:00:17.510Z,12.33
2023-04-11T19:02:50.680Z,12.32
2023-04-11T19:05:19.468Z,12.29
2023-04-11T19:07:47.309Z,12.30
2023-04-11T19:10:15.044Z,12.30
2023-04-11T19:12:42.825Z,12.27
2023-04-11T19:15:11.786Z,12.23
2023-04-11T19:17:39.854Z,12.20
2023-04-11T19:20:12.688Z,12.18
2023-04-11T19:22:41.217Z,12.17
2023-04-11T19:25:11.595Z,12.15
2023-04-11T19:27:41.384Z,12.12
2023-04-11T19:30:10.943Z,12.10
2023-04-11T19:32:42.884Z,12.07
2023-04-11T19:35:12.645Z,12.05
2023-04-11T19:37:40.854Z,12.01
2023-04-11T19:40:10.813Z,11.99
2023-04-11T19:42:39.854Z,11.98
2023-04-11T19:45:09.676Z,11.99
2023-04-11T19:47:39.155Z,11.97
2023-04-11T19:50:07.932Z,11.97
2023-04-11T19:52:37.047Z,11.95
2023-04-11T19:55:05.267Z,11.93
2023-04-11T19:57:32.961Z,11.91
2023-04-11T20:00:00.697Z,11.90
2023-04-11T20:02:29.015Z,11.93
2023-04-11T20:04:56.965Z,11.90
2023-04-11T20:07:24.713Z,11.92
2023-04-11T20:09:53.889Z,11.92
2023-04-11T20:12:21.546Z,11.92
2023-04-11T20:14:49.281Z,11.92
2023-04-11T20:17:16.947Z,11.90
2023-04-11T20:19:44.935Z,11.90
2023-04-11T20:22:17.371Z,11.91
2023-04-11T20:24:46.522Z,11.90
2023-04-11T20:27:15.913Z,11.87
2023-04-11T20:29:43.913Z,11.86
2023-04-11T20:32:11.699Z,11.84
2023-04-11T20:34:39.389Z,11.82
2023-04-11T20:37:07.845Z,11.81
2023-04-11T20:39:35.784Z,11.81
2023-04-11T20:42:03.520Z,11.80
2023-04-11T20:44:34.148Z,11.79
2023-04-11T20:47:01.823Z,11.76
2023-04-11T20:49:31.784Z,11.76
2023-04-11T20:52:00.053Z,11.76
2023-04-11T20:54:27.803Z,11.76
2023-04-11T20:56:55.887Z,11.77
2023-04-11T20:59:23.903Z,11.74
2023-04-11T21:01:53.771Z,11.72
2023-04-11T21:04:22.050Z,11.67
2023-04-11T21:06:50.613Z,11.65
2023-04-11T21:09:18.572Z,11.62
2023-04-11T21:11:46.291Z,11.63
2023-04-11T21:14:14.071Z,11.63
2023-04-11T21:16:41.830Z,11.65
2023-04-11T21:19:10.914Z,11.62
2023-04-11T21:21:40.669Z,11.59
2023-04-11T21:24:09.217Z,11.57
2023-04-11T21:26:37.648Z,11.55
2023-04-11T21:29:05.385Z,11.56
2023-04-11T21:31:33.092Z,11.53
2023-04-11T21:34:00.899Z,11.52
2023-04-11T21:36:29.956Z,11.51
2023-04-11T21:38:58.041Z,11.49
2023-04-11T21:41:25.706Z,11.50
2023-04-11T21:43:53.370Z,11.51
2023-04-11T21:46:21.061Z,11.51
2023-04-11T21:48:49.628Z,11.50
2023-04-11T21:51:19.106Z,11.51
2023-04-11T21:53:48.072Z,11.50
2023-04-11T21:56:15.989Z,11.48
2023-04-11T21:58:43.662Z,11.47
2023-04-11T22:01:12.026Z,11.45
2023-04-11T22:03:41.477Z,11.43
2023-04-11T22:06:11.077Z,11.40
2023-04-11T22:08:39.359Z,11.38
2023-04-11T22:11:10.209Z,11.33
2023-04-11T22:13:39.651Z,11.36
2023-04-11T22:16:10.622Z,11.32
2023-04-11T22:18:46.618Z,11.26
2023-04-11T22:21:19.111Z,11.24
2023-04-11T22:23:47.096Z,11.19
2023-04-11T22:26:16.486Z,11.16
2023-04-11T22:28:45.408Z,11.13
2023-04-11T22:31:14.164Z,11.11
2023-04-11T22:33:41.900Z,11.09
2023-04-11T22:36:10.614Z,11.07
2023-04-11T22:38:38.417Z,11.06
2023-04-11T22:41:06.517Z,11.07
2023-04-11T22:48:04.289Z,11.09
2023-04-11T22:54:49.774Z,11.06
2023-04-11T22:57:19.079Z,11.07
2023-04-11T22:59:47.140Z,11.08
2023-04-11T23:02:14.989Z,11.08
2023-04-11T23:04:42.842Z,11.07
2023-04-11T23:07:10.683Z,11.02
2023-04-11T23:09:38.407Z,11.01
2023-04-11T23:12:06.693Z,11.03
2023-04-11T23:14:35.793Z,11.02
2023-04-11T23:17:03.954Z,11.00
2023-04-11T23:19:31.682Z,10.96
2023-04-11T23:21:59.531Z,10.96
2023-04-11T23:24:28.970Z,10.91
2023-04-11T23:26:56.873Z,10.89
2023-04-11T23:29:24.624Z,10.95
2023-04-11T23:31:53.790Z,10.76
2023-04-11T23:34:22.078Z,10.68
2023-04-11T23:36:49.793Z,10.56
2023-04-11T23:39:17.805Z,10.54
2023-04-11T23:41:45.696Z,10.55
2023-04-11T23:44:13.327Z,10.57
2023-04-11T23:46:41.217Z,10.49
2023-04-11T23:49:10.506Z,10.44
2023-04-11T23:51:38.219Z,10.42
2023-04-11T23:54:07.162Z,10.44
2023-04-11T23:56:34.891Z,10.41
2023-04-11T23:59:02.622Z,10.42
